Time;durP1;ratioP1;P1;durP2;ratioP2;P2;SDS_P1;SDS_P2;PMS_P1;PMS_P2;Temp;Humidity;BMP_temperature;BMP_pressure;BME280_temperature;BME280_humidity;BME280_pressure;Samples;Min_cycle;Max_cycle;Signal;HPM_P1;HPM_P2
2022/12/23 00:01:23;;;;;;;13.10;2.85;;;4.50;99.90;;;;;;4882303;29;20466;-75
2022/12/23 00:03:49;;;;;;;18.98;5.68;;;4.50;99.90;;;;;;4882870;29;20025;-75
2022/12/23 00:06:17;;;;;;;20.77;5.18;;;4.30;99.90;;;;;;4866194;29;20036;-75
2022/12/23 00:08:43;;;;;;;10.55;2.20;;;4.20;99.90;;;;;;4866749;29;20087;-75
2022/12/23 00:11:17;;;;;;;6.45;1.90;;;4.10;99.90;;;;;;4866793;29;20037;-75
2022/12/23 00:16:27;;;;;;;10.27;1.88;;;3.90;99.90;;;;;;4885701;29;20089;-75
2022/12/23 00:18:53;;;;;;;7.88;2.35;;;3.80;99.90;;;;;;4886206;29;20037;-75
2022/12/23 00:21:20;;;;;;;12.40;1.92;;;3.70;99.90;;;;;;4887189;29;20048;-75
2022/12/23 00:23:47;;;;;;;4.00;1.17;;;3.60;99.90;;;;;;4868672;29;20040;-75
2022/12/23 00:26:19;;;;;;;5.15;1.50;;;3.50;99.90;;;;;;4886408;29;20501;-75
2022/12/23 00:28:44;;;;;;;7.05;1.30;;;3.40;99.90;;;;;;4886000;29;20038;-75
2022/12/23 00:31:12;;;;;;;11.52;2.15;;;3.30;99.90;;;;;;4886122;29;20033;-75
2022/12/23 00:33:40;;;;;;;4.57;1.70;;;3.30;99.90;;;;;;4886142;29;20459;-75
2022/12/23 00:36:27;;;;;;;8.57;1.95;;;3.30;99.90;;;;;;4886867;29;20029;-75
2022/12/23 00:44:21;;;;;;;5.63;1.17;;;3.10;99.90;;;;;;4885908;29;20116;-74
2022/12/23 00:46:47;;;;;;;4.45;1.40;;;3.10;99.90;;;;;;4885390;29;20057;-75
2022/12/23 00:52:00;;;;;;;7.90;1.55;;;3.00;99.90;;;;;;4885372;29;20040;-75
2022/12/23 00:54:26;;;;;;;8.18;2.45;;;2.90;99.90;;;;;;4868166;29;20466;-75
2022/12/23 00:56:51;;;;;;;10.95;1.95;;;2.90;99.90;;;;;;4868299;29;20077;-75
2022/12/23 00:59:17;;;;;;;7.70;2.40;;;2.80;99.90;;;;;;4867700;29;20088;-75
2022/12/23 01:07:11;;;;;;;6.63;2.50;;;2.80;99.90;;;;;;4884461;29;20040;-75
2022/12/23 01:09:36;;;;;;;15.05;3.45;;;2.80;99.90;;;;;;4867463;29;20128;-74
2022/12/23 01:12:02;;;;;;;7.75;2.80;;;2.80;99.90;;;;;;4868124;29;20040;-75
2022/12/23 01:14:28;;;;;;;10.57;2.95;;;2.80;99.90;;;;;;4883799;29;20130;-75
2022/12/23 01:16:54;;;;;;;9.25;3.42;;;2.70;99.90;;;;;;4884116;29;20127;-75
2022/12/23 01:19:19;;;;;;;10.90;3.97;;;2.80;99.90;;;;;;4882948;29;20124;-75
2022/12/23 01:21:45;;;;;;;12.07;3.90;;;2.70;99.90;;;;;;4883666;29;20119;-75
2022/12/23 01:24:11;;;;;;;13.27;3.78;;;2.70;99.90;;;;;;4867205;29;20033;-75
2022/12/23 01:26:37;;;;;;;9.27;3.30;;;2.70;99.90;;;;;;4882501;29;20025;-75
2022/12/23 01:29:02;;;;;;;12.40;3.80;;;2.70;99.90;;;;;;4867319;29;20036;-75
2022/12/23 01:31:28;;;;;;;13.90;5.00;;;2.70;99.90;;;;;;4883778;29;20029;-75
2022/12/23 01:33:54;;;;;;;12.45;4.32;;;2.70;99.90;;;;;;4867163;29;20129;-75
2022/12/23 01:36:21;;;;;;;11.48;4.30;;;2.70;99.90;;;;;;4867311;29;20044;-75
2022/12/23 01:38:48;;;;;;;18.00;4.70;;;2.70;99.90;;;;;;4882560;29;20475;-75
2022/12/23 01:42:42;;;;;;;13.93;4.35;;;2.70;99.90;;;;;;4883196;29;20032;-75
2022/12/23 01:44:42;;;;;;;12.30;4.15;;;2.70;99.90;;;;;;4882724;29;20085;-75
2022/12/23 01:47:19;;;;;;;10.52;4.10;;;2.70;99.90;;;;;;4865848;29;20394;-75
2022/12/23 01:49:46;;;;;;;9.82;4.53;;;2.70;99.90;;;;;;4882778;29;20089;-74
2022/12/23 01:52:13;;;;;;;14.25;4.90;;;2.70;99.90;;;;;;4871053;29;20033;-75
2022/12/23 01:54:39;;;;;;;10.23;3.80;;;2.70;99.90;;;;;;4872734;29;20089;-75
2022/12/23 01:57:05;;;;;;;15.23;4.75;;;2.70;99.90;;;;;;4889532;29;20033;-75
2022/12/23 02:05:00;;;;;;;11.65;4.18;;;2.80;99.90;;;;;;4887978;29;20430;-75
2022/12/23 02:10:11;;;;;;;13.57;4.97;;;2.80;99.90;;;;;;4886463;29;20512;-75
2022/12/23 02:12:51;;;;;;;10.73;4.22;;;2.80;99.90;;;;;;4884163;29;20029;-75
2022/12/23 02:18:53;;;;;;;15.02;4.28;;;2.80;99.90;;;;;;4886629;29;20048;-75
2022/12/23 02:21:42;;;;;;;12.80;4.13;;;2.90;99.90;;;;;;4868793;29;20033;-75
2022/12/23 02:24:39;;;;;;;13.18;4.35;;;2.90;99.90;;;;;;4885647;29;20025;-75
2022/12/23 02:27:30;;;;;;;15.85;4.47;;;2.90;99.90;;;;;;4885271;29;20039;-75
2022/12/23 02:30:19;;;;;;;13.43;4.63;;;3.00;99.90;;;;;;4885135;29;20032;-75
2022/12/23 02:32:48;;;;;;;;;;;3.00;99.90;;;;;;4879911;29;20041;-75
2022/12/23 02:35:17;;;;;;;11.57;3.88;;;3.00;99.90;;;;;;4885631;29;19907;-75
2022/12/23 02:37:45;;;;;;;11.15;4.80;;;3.00;99.90;;;;;;4886300;29;20041;-75
2022/12/23 02:40:28;;;;;;;8.20;3.42;;;3.00;99.90;;;;;;4874974;29;20033;-75
2022/12/23 02:43:17;;;;;;;18.73;4.93;;;3.00;99.90;;;;;;4891972;29;20044;-75
2022/12/23 02:45:53;;;;;;;10.73;4.90;;;3.00;99.90;;;;;;4874527;29;20090;-75
2022/12/23 02:48:35;;;;;;;12.13;4.97;;;3.10;99.90;;;;;;4890282;29;20093;-75
2022/12/23 02:51:02;;;;;;;13.90;4.10;;;3.10;99.90;;;;;;4873580;29;20033;-75
2022/12/23 02:53:36;;;;;;;14.18;4.40;;;3.10;99.90;;;;;;4872914;29;20069;-75
2022/12/23 02:56:04;;;;;;;13.65;4.63;;;3.10;99.90;;;;;;4873374;29;20029;-75
2022/12/23 02:58:54;;;;;;;15.38;4.47;;;3.10;99.90;;;;;;4888609;29;20041;-74
2022/12/23 03:01:22;;;;;;;10.48;3.47;;;3.10;99.90;;;;;;4888911;29;20450;-76
2022/12/23 03:03:49;;;;;;;10.25;3.15;;;3.10;99.90;;;;;;4889722;29;20109;-76
2022/12/23 03:06:37;;;;;;;10.65;3.38;;;3.10;99.90;;;;;;4872394;29;20119;-75
2022/12/23 03:09:03;;;;;;;6.70;3.13;;;3.10;99.90;;;;;;4871976;29;20053;-76
2022/12/23 03:11:49;;;;;;;12.45;3.97;;;3.10;99.90;;;;;;4872010;29;20036;-76
2022/12/23 03:14:44;;;;;;;11.98;4.28;;;3.10;99.90;;;;;;4889661;29;20072;-76
2022/12/23 03:17:28;;;;;;;13.90;4.15;;;3.10;99.90;;;;;;4889408;29;20036;-76
2022/12/23 03:20:03;;;;;;;13.55;3.33;;;3.10;99.90;;;;;;4872007;29;20029;-76
2022/12/23 03:22:35;;;;;;;13.73;3.67;;;3.10;99.90;;;;;;4886562;29;20036;-76
2022/12/23 03:25:16;;;;;;;8.18;3.80;;;3.10;99.90;;;;;;4869379;29;20026;-76
2022/12/23 03:27:59;;;;;;;14.13;4.13;;;3.10;99.90;;;;;;4870944;29;20100;-76
2022/12/23 03:30:25;;;;;;;12.80;4.25;;;3.10;99.90;;;;;;4888408;29;20035;-77
2022/12/23 03:32:54;;;;;;;15.93;4.95;;;3.10;99.90;;;;;;4870782;29;20065;-76
2022/12/23 03:35:29;;;;;;;9.05;4.45;;;3.10;99.90;;;;;;4871319;29;20029;-76
2022/12/23 03:37:57;;;;;;;12.25;4.05;;;3.10;99.90;;;;;;4869963;29;20059;-76
2022/12/23 03:40:34;;;;;;;11.50;3.67;;;3.10;99.90;;;;;;4887440;29;20032;-77
2022/12/23 03:43:08;;;;;;;11.95;3.50;;;3.10;99.90;;;;;;4869585;29;20522;-77
2022/12/23 03:45:40;;;;;;;11.00;4.00;;;3.10;99.90;;;;;;4869796;29;20523;-77
2022/12/23 03:48:36;;;;;;;8.00;3.15;;;3.10;99.90;;;;;;4885314;29;20406;-77
2022/12/23 03:51:25;;;;;;;8.63;3.72;;;3.10;99.90;;;;;;4866954;29;20041;-77
2022/12/23 03:53:56;;;;;;;10.25;3.50;;;3.10;99.90;;;;;;4868560;29;20032;-77
2022/12/23 03:56:29;;;;;;;14.70;3.78;;;3.20;99.90;;;;;;4885213;29;20104;-77
2022/12/23 03:58:59;;;;;;;6.85;3.13;;;3.20;99.90;;;;;;4884224;29;20033;-76
2022/12/23 04:01:54;;;;;;;13.80;3.83;;;3.20;99.90;;;;;;4868544;29;20033;-76
2022/12/23 04:04:58;;;;;;;9.48;4.28;;;3.20;99.90;;;;;;4868616;29;20037;-76
2022/12/23 04:07:33;;;;;;;12.75;3.90;;;3.20;99.90;;;;;;4861368;29;20413;-75
2022/12/23 04:09:59;;;;;;;16.42;4.45;;;3.20;99.90;;;;;;4869037;29;20402;-75
2022/12/23 04:12:26;;;;;;;15.85;4.75;;;3.20;99.90;;;;;;4884323;29;20103;-75
2022/12/23 04:14:52;;;;;;;14.65;4.70;;;3.20;99.90;;;;;;4884328;29;20033;-79
2022/12/23 04:17:18;;;;;;;12.70;4.80;;;3.20;99.90;;;;;;4884374;29;20029;-80
2022/12/23 04:19:45;;;;;;;7.70;3.88;;;3.20;99.90;;;;;;4884974;29;20025;-80
2022/12/23 04:22:12;;;;;;;12.45;5.03;;;3.20;99.90;;;;;;4867778;29;20041;-79
2022/12/23 04:24:38;;;;;;;17.92;4.53;;;3.20;99.90;;;;;;4886195;29;20465;-80
2022/12/23 04:27:05;;;;;;;9.75;4.05;;;3.20;99.90;;;;;;4868051;29;20041;-79
2022/12/23 04:29:31;;;;;;;14.48;4.65;;;3.30;99.90;;;;;;4884653;29;20037;-78
2022/12/23 04:31:57;;;;;;;11.48;4.97;;;3.30;99.90;;;;;;4883423;29;20029;-78
2022/12/23 04:34:22;;;;;;;25.92;5.90;;;3.30;99.90;;;;;;4873842;29;20054;-80
2022/12/23 04:36:48;;;;;;;14.40;5.05;;;3.30;99.90;;;;;;4890913;29;20056;-78
2022/12/23 04:39:14;;;;;;;18.52;5.05;;;3.30;99.90;;;;;;4872496;29;20040;-79
2022/12/23 04:41:39;;;;;;;14.40;4.60;;;3.40;99.90;;;;;;4871884;29;20033;-79
2022/12/23 04:44:05;;;;;;;11.35;4.65;;;3.40;99.90;;;;;;4886993;29;20029;-78
2022/12/23 04:46:31;;;;;;;11.07;4.07;;;3.40;99.90;;;;;;4869561;29;20040;-78
2022/12/23 04:48:56;;;;;;;17.10;4.35;;;3.40;99.90;;;;;;4870868;29;20033;-79
2022/12/23 04:51:22;;;;;;;14.10;4.18;;;3.50;99.90;;;;;;4886667;29;20470;-79
2022/12/23 04:53:48;;;;;;;23.55;4.18;;;3.50;99.90;;;;;;4871775;29;20033;-80
2022/12/23 04:56:13;;;;;;;19.98;4.95;;;3.50;99.90;;;;;;4888088;29;20029;-80
2022/12/23 04:58:39;;;;;;;14.55;4.90;;;3.40;99.90;;;;;;4873350;29;20070;-81
2022/12/23 05:01:07;;;;;;;13.38;5.25;;;3.40;99.90;;;;;;4872058;29;20037;-80
2022/12/23 05:03:33;;;;;;;6.60;3.10;;;3.50;99.90;;;;;;4887183;29;20036;-79
2022/12/23 05:05:59;;;;;;;10.93;4.13;;;3.50;99.90;;;;;;4868653;29;20072;-79
2022/12/23 05:08:25;;;;;;;13.60;4.20;;;3.50;99.90;;;;;;4868218;29;20402;-72
2022/12/23 05:10:52;;;;;;;11.57;4.93;;;3.50;99.90;;;;;;4886084;29;20060;-77
2022/12/23 05:13:18;;;;;;;15.25;4.57;;;3.50;99.90;;;;;;4887270;29;20126;-79
2022/12/23 05:15:45;;;;;;;23.92;4.80;;;3.50;99.90;;;;;;4869665;29;20025;-77
2022/12/23 05:18:11;;;;;;;27.88;6.60;;;3.50;99.90;;;;;;4871545;29;20124;-81
2022/12/23 05:20:37;;;;;;;23.48;5.53;;;3.50;99.90;;;;;;5022354;23;21276;-81
2022/12/23 05:23:03;;;;;;;15.65;5.20;;;3.50;99.90;;;;;;4971260;28;20027;-80
2022/12/23 05:25:33;;;;;;;16.25;5.10;;;3.50;99.90;;;;;;5172347;23;20099;-79
2022/12/23 05:30:34;;;;;;;18.85;6.55;;;3.50;99.90;;;;;;4991622;23;20054;-80
2022/12/23 05:33:00;;;;;;;14.52;5.35;;;3.60;99.90;;;;;;4968783;28;20030;-81
2022/12/23 05:35:26;;;;;;;11.38;5.13;;;3.60;99.90;;;;;;4983366;28;20050;-78
2022/12/23 05:37:52;;;;;;;13.02;5.25;;;3.60;99.90;;;;;;4994326;28;20045;-82
2022/12/23 06:10:13;;;;;;;16.88;7.32;;;3.60;99.90;;;;;;4931964;29;20052;-82
2022/12/23 08:13:55;;;;;;;19.33;9.43;;;;;;;;;;5787918;23;20035;-84
2022/12/23 08:21:31;;;;;;;19.80;8.95;;;5.00;99.90;;;;;;5778644;23;20174;-83
2022/12/23 08:23:57;;;;;;;30.92;8.95;;;5.40;99.90;;;;;;4963151;29;20094;-82
2022/12/23 08:26:24;;;;;;;20.95;8.63;;;6.80;99.90;;;;;;4958352;29;20121;-83
2022/12/23 08:28:52;;;;;;;25.38;9.27;;;5.00;99.90;;;;;;4939709;29;20028;-82
2022/12/23 08:41:43;;;;;;;14.60;8.50;;;5.30;99.90;;;;;;5614765;23;20084;-83
2022/12/23 08:44:09;;;;;;;17.30;8.55;;;4.60;99.90;;;;;;4943543;29;20051;-82
2022/12/23 08:46:36;;;;;;;16.52;8.23;;;8.40;99.90;;;;;;4940425;29;20483;-83
2022/12/23 08:49:02;;;;;;;19.92;8.30;;;7.60;99.90;;;;;;4942511;29;20032;-83
2022/12/23 08:51:29;;;;;;;15.82;8.52;;;5.60;99.90;;;;;;4934534;29;20115;-83
2022/12/23 08:53:56;;;;;;;12.88;7.68;;;6.10;99.90;;;;;;4930652;29;20073;-82
2022/12/23 08:56:24;;;;;;;23.20;7.85;;;5.60;99.90;;;;;;4945011;29;20024;-82
2022/12/23 08:58:52;;;;;;;14.93;7.13;;;5.50;99.90;;;;;;4944565;29;20031;-80
2022/12/23 09:01:20;;;;;;;14.40;7.82;;;5.60;99.90;;;;;;4926736;29;20400;-79
2022/12/23 09:03:46;;;;;;;25.77;8.35;;;5.70;99.90;;;;;;4910799;29;20031;-79
2022/12/23 09:06:24;;;;;;;12.05;7.30;;;5.80;99.90;;;;;;4945596;29;20035;-82
2022/12/23 09:08:50;;;;;;;16.52;6.68;;;6.00;99.90;;;;;;4932129;29;20035;-82
2022/12/23 09:11:22;;;;;;;11.65;6.40;;;6.10;99.90;;;;;;4947275;29;20039;-82
2022/12/23 09:13:48;;;;;;;14.50;6.45;;;6.20;99.90;;;;;;4947752;29;20031;-82
2022/12/23 09:16:14;;;;;;;18.23;6.28;;;6.40;99.90;;;;;;4929221;29;20030;-82
2022/12/23 09:18:40;;;;;;;17.20;6.07;;;6.50;99.90;;;;;;4927969;29;20436;-82
2022/12/23 09:21:14;;;;;;;11.85;5.82;;;6.60;99.90;;;;;;4926935;29;20034;-81
2022/12/23 09:23:40;;;;;;;12.10;5.38;;;6.70;99.90;;;;;;4926059;29;20059;-80
2022/12/23 09:26:07;;;;;;;10.95;5.25;;;6.90;99.90;;;;;;4940007;29;20420;-79
2022/12/23 09:28:33;;;;;;;10.27;5.53;;;7.00;99.90;;;;;;4923297;29;20083;-79
2022/12/23 09:31:07;;;;;;;11.45;5.40;;;7.10;99.90;;;;;;4921710;29;20388;-79
2022/12/23 09:33:33;;;;;;;9.18;5.65;;;7.20;99.90;;;;;;4921560;29;20035;-78
2022/12/23 09:36:00;;;;;;;11.40;6.18;;;7.30;99.90;;;;;;4920523;29;20158;-79
2022/12/23 09:38:25;;;;;;;10.57;5.97;;;7.30;99.90;;;;;;4937919;29;20028;-79
2022/12/23 09:40:51;;;;;;;14.65;7.85;;;7.40;99.90;;;;;;4919955;29;20452;-79
2022/12/23 09:43:41;;;;;;;16.75;7.55;;;7.50;99.90;;;;;;4920297;29;20035;-78
2022/12/23 09:46:17;;;;;;;12.60;7.28;;;7.50;99.90;;;;;;4920582;29;20428;-78
2022/12/23 09:49:08;;;;;;;16.20;7.32;;;7.40;99.90;;;;;;4921301;29;20432;-78
2022/12/23 09:51:34;;;;;;;16.73;8.07;;;7.40;99.90;;;;;;4921544;29;20376;-78
2022/12/23 09:54:21;;;;;;;18.23;8.85;;;7.40;99.90;;;;;;4920790;29;20036;-78
2022/12/23 09:57:07;;;;;;;16.70;7.75;;;7.40;99.90;;;;;;4921148;29;20555;-77
2022/12/23 10:00:11;;;;;;;13.02;7.22;;;7.40;99.90;;;;;;4937657;29;20038;-77
2022/12/23 10:02:48;;;;;;;14.13;7.15;;;7.50;99.90;;;;;;4826562;29;20073;-77
2022/12/23 10:05:29;;;;;;;15.50;8.00;;;7.40;99.90;;;;;;4924914;29;20036;-76
2022/12/23 10:08:01;;;;;;;14.85;8.80;;;7.30;99.90;;;;;;4937501;29;20106;-77
2022/12/23 10:10:44;;;;;;;19.58;9.73;;;7.30;99.90;;;;;;4920614;29;20468;-77
2022/12/23 10:13:25;;;;;;;21.10;11.32;;;7.40;99.90;;;;;;4920867;29;20042;-76
2022/12/23 10:15:52;;;;;;;24.60;13.30;;;7.40;99.90;;;;;;4921141;29;20081;-77
2022/12/23 10:18:23;;;;;;;24.90;14.05;;;7.40;99.90;;;;;;4921574;29;20039;-77
2022/12/23 10:21:24;;;;;;;25.35;15.35;;;7.30;99.90;;;;;;4938778;29;20031;-77
2022/12/23 10:23:53;;;;;;;26.75;14.40;;;7.30;99.90;;;;;;4904307;29;20047;-77
2022/12/23 10:26:28;;;;;;;28.70;16.38;;;7.30;99.90;;;;;;4938996;29;20024;-77
2022/12/23 10:29:04;;;;;;;29.13;15.95;;;7.30;99.90;;;;;;4940568;29;20027;-77
2022/12/23 10:32:02;;;;;;;28.23;16.15;;;7.40;99.90;;;;;;4921870;29;20039;-77
2022/12/23 10:34:47;;;;;;;29.55;16.63;;;7.60;99.90;;;;;;4920416;29;20024;-77
2022/12/23 10:37:31;;;;;;;26.17;14.25;;;7.80;99.90;;;;;;4920450;29;20028;-76
2022/12/23 10:39:57;;;;;;;8.70;6.07;;;7.90;99.90;;;;;;4937430;29;20028;-76
2022/12/23 10:42:35;;;;;;;8.13;3.75;;;8.20;99.90;;;;;;4920320;29;20048;-77
2022/12/23 10:45:08;;;;;;;2.35;1.85;;;8.70;99.90;;;;;;4919723;29;20032;-77
2022/12/23 10:47:55;;;;;;;1.75;1.10;;;9.20;99.90;;;;;;4937002;29;20039;-76
2022/12/23 10:50:48;;;;;;;1.90;1.05;;;9.50;99.90;;;;;;4937043;29;20038;-77
2022/12/23 10:53:28;;;;;;;1.85;1.00;;;9.90;99.90;;;;;;4920452;29;20122;-77
2022/12/23 10:55:54;;;;;;;3.80;1.30;;;10.10;99.90;;;;;;4919982;29;20063;-77
2022/12/23 10:58:21;;;;;;;3.35;1.10;;;10.20;99.90;;;;;;4921150;29;20052;-77
2022/12/23 11:00:56;;;;;;;1.50;0.77;;;10.30;99.90;;;;;;4923778;29;20078;-77
2022/12/23 11:03:41;;;;;;;1.00;1.00;;;10.40;99.90;;;;;;4941227;29;20028;-77
2022/12/23 11:06:09;;;;;;;2.83;1.27;;;10.50;99.90;;;;;;4923880;29;20032;-77
2022/12/23 11:08:36;;;;;;;1.63;1.15;;;10.50;99.90;;;;;;4925527;29;20027;-77
2022/12/23 11:11:02;;;;;;;1.55;0.90;;;10.60;99.90;;;;;;4942269;29;20031;-77
2022/12/23 11:13:31;;;;;;;3.58;0.70;;;10.60;99.90;;;;;;4925669;29;20121;-77
2022/12/23 11:16:19;;;;;;;0.75;0.75;;;10.70;99.90;;;;;;4923891;29;20031;-78
2022/12/23 11:19:01;;;;;;;3.92;0.77;;;10.80;99.90;;;;;;4942716;29;20024;-77
2022/12/23 11:21:29;;;;;;;1.67;0.70;;;11.20;99.90;;;;;;4945846;29;20444;-78
2022/12/23 11:24:17;;;;;;;1.20;0.55;;;11.20;99.90;;;;;;4930725;29;20091;-78
2022/12/23 11:26:49;;;;;;;0.65;0.40;;;11.20;99.90;;;;;;4931243;29;20036;-79
2022/12/23 11:29:34;;;;;;;0.88;0.80;;;11.40;99.90;;;;;;4929774;29;20094;-80
2022/12/23 11:32:03;;;;;;;0.47;0.47;;;11.60;99.90;;;;;;4946843;29;20032;-79
2022/12/23 11:34:36;;;;;;;0.73;0.50;;;11.60;99.90;;;;;;4946852;29;20263;-80
2022/12/23 11:37:03;;;;;;;1.50;0.60;;;11.50;99.90;;;;;;4926277;29;20472;-80
2022/12/23 11:39:33;;;;;;;3.67;0.73;;;11.50;99.90;;;;;;4926446;29;20032;-79
2022/12/23 11:42:03;;;;;;;0.68;0.65;;;11.40;99.90;;;;;;4927744;29;20114;-80
2022/12/23 11:44:34;;;;;;;0.47;0.47;;;11.50;99.90;;;;;;4926142;29;20090;-80
2022/12/23 11:47:22;;;;;;;2.47;0.63;;;11.70;99.90;;;;;;4927032;29;20087;-80
2022/12/23 11:49:49;;;;;;;0.32;0.32;;;12.30;99.90;;;;;;4927385;29;20058;-80
2022/12/23 11:52:18;;;;;;;0.50;0.40;;;12.90;99.90;;;;;;4954947;29;20028;-81
2022/12/23 11:54:52;;;;;;;;;;;13.70;99.90;;;;;;4942223;29;20052;-81
2022/12/23 11:57:30;;;;;;;0.50;0.50;;;14.10;99.90;;;;;;4962477;28;19926;-83
2022/12/23 12:00:00;;;;;;;1.08;0.40;;;14.20;99.90;;;;;;4934346;29;20469;-82
2022/12/23 12:02:38;;;;;;;1.45;0.75;;;14.50;99.90;;;;;;4944325;29;20035;-84
2022/12/23 12:05:07;;;;;;;1.90;0.50;;;14.50;99.90;;;;;;4942329;29;20024;-87
2022/12/23 12:07:34;;;;;;;1.17;0.77;;;15.00;99.90;;;;;;4922585;29;20280;-89
2022/12/23 12:10:01;;;;;;;0.85;0.57;;;15.20;99.90;;;;;;4924230;29;20103;-90
2022/12/23 12:12:28;;;;;;;0.65;0.45;;;15.20;99.90;;;;;;4931336;29;20535;-88
2022/12/23 12:14:57;;;;;;;0.30;0.30;;;15.00;99.90;;;;;;4940917;29;20457;-86
2022/12/23 12:39:41;;;;;;;0.77;0.55;;;14.30;99.90;;;;;;5742214;23;20038;-85
2022/12/23 13:00:19;;;;;;;0.80;0.68;;;12.60;99.90;;;;;;5599447;23;20261;-83
2022/12/23 13:03:13;;;;;;;0.50;0.50;;;12.60;99.90;;;;;;4961385;29;20023;-84
2022/12/23 13:06:20;;;;;;;0.60;0.55;;;11.60;99.90;;;;;;4945245;29;20008;-83
2022/12/23 13:08:58;;;;;;;0.95;0.40;;;10.90;99.90;;;;;;5177061;23;20048;-80
2022/12/23 13:11:51;;;;;;;0.82;0.50;;;12.30;99.90;;;;;;4929336;29;20036;-76
2022/12/23 13:14:20;;;;;;;1.25;0.55;;;12.40;99.90;;;;;;5017295;23;20730;-79
2022/12/23 13:17:10;;;;;;;1.48;0.60;;;12.40;99.90;;;;;;4939517;29;20095;-82
2022/12/23 13:24:56;;;;;;;1.10;0.70;;;12.80;99.90;;;;;;5167194;23;20044;-80
2022/12/23 13:27:27;;;;;;;0.70;0.70;;;12.80;99.90;;;;;;4955320;29;20063;-79
2022/12/23 13:32:36;;;;;;;0.52;0.52;;;12.60;99.90;;;;;;4932166;29;20056;-83
2022/12/23 13:37:53;;;;;;;0.80;0.80;;;12.40;99.90;;;;;;4926146;29;20055;-79
2022/12/23 13:40:27;;;;;;;1.27;0.93;;;12.30;99.90;;;;;;5574270;23;20027;-83
2022/12/23 13:43:03;;;;;;;3.17;0.80;;;12.60;99.90;;;;;;4941700;29;20030;-80
2022/12/23 13:45:38;;;;;;;0.82;0.60;;;12.20;99.90;;;;;;4957592;29;20028;-82
2022/12/23 13:48:25;;;;;;;0.52;0.52;;;12.20;99.90;;;;;;4931894;29;20024;-82
2022/12/23 13:51:07;;;;;;;1.30;0.75;;;12.30;99.90;;;;;;4932441;29;20055;-79
2022/12/23 13:53:58;;;;;;;0.93;0.70;;;12.30;99.90;;;;;;4920975;29;20502;-78
2022/12/23 13:56:47;;;;;;;0.35;0.35;;;12.30;99.90;;;;;;4923009;29;20057;-81
2022/12/23 13:59:15;;;;;;;0.93;0.60;;;12.30;99.90;;;;;;4921407;29;20107;-77
2022/12/23 14:01:40;;;;;;;0.73;0.70;;;12.30;99.90;;;;;;4920460;29;20388;-78
2022/12/23 14:04:33;;;;;;;1.55;1.05;;;12.30;99.90;;;;;;4938297;29;20083;-79
2022/12/23 14:07:17;;;;;;;0.93;0.60;;;12.20;99.90;;;;;;4938070;29;20031;-79
2022/12/23 14:09:50;;;;;;;1.48;0.63;;;12.20;99.90;;;;;;4921041;29;20035;-79
2022/12/23 14:12:28;;;;;;;4.05;1.10;;;12.20;99.90;;;;;;4937062;29;20372;-80
2022/12/23 14:15:33;;;;;;;1.10;0.70;;;12.10;99.90;;;;;;4937749;29;20079;-84
2022/12/23 14:18:13;;;;;;;4.05;1.92;;;12.00;99.90;;;;;;4892762;29;20104;-81
2022/12/23 14:20:50;;;;;;;0.60;0.60;;;11.90;99.90;;;;;;4975036;23;20123;-82
2022/12/23 14:23:16;;;;;;;2.00;0.60;;;11.80;99.90;;;;;;4931651;29;20067;-83
2022/12/23 14:25:50;;;;;;;1.42;0.80;;;11.80;99.90;;;;;;4923460;29;20024;-82
2022/12/23 14:28:42;;;;;;;1.52;0.70;;;11.70;99.90;;;;;;4938578;29;20040;-83
2022/12/23 14:31:27;;;;;;;0.82;0.73;;;11.60;99.90;;;;;;4922782;29;20032;-81
2022/12/23 14:34:16;;;;;;;2.00;0.65;;;11.50;99.90;;;;;;4921866;29;20388;-80
2022/12/23 14:37:14;;;;;;;1.85;0.65;;;11.40;99.90;;;;;;4923458;29;20469;-80
2022/12/23 14:39:39;;;;;;;1.67;0.60;;;11.30;99.90;;;;;;4923640;29;20051;-80
2022/12/23 14:42:10;;;;;;;1.63;1.08;;;11.20;99.90;;;;;;4924455;29;20024;-81
2022/12/23 14:44:36;;;;;;;6.45;2.00;;;11.10;99.90;;;;;;4926845;29;20126;-80
2022/12/23 14:47:29;;;;;;;1.40;0.85;;;11.00;99.90;;;;;;4925124;29;20057;-80
2022/12/23 14:49:55;;;;;;;2.00;1.17;;;11.00;99.90;;;;;;4909400;29;20032;-80
2022/12/23 14:52:47;;;;;;;3.30;1.90;;;10.90;99.90;;;;;;4909576;29;20028;-82
2022/12/23 14:55:22;;;;;;;3.20;2.08;;;10.90;99.90;;;;;;4908499;29;20025;-80
2022/12/23 14:58:10;;;;;;;2.22;1.20;;;10.90;99.90;;;;;;4908549;29;20039;-81
2022/12/23 15:01:08;;;;;;;4.75;1.98;;;10.80;99.90;;;;;;4906868;29;20040;-80
2022/12/23 15:03:42;;;;;;;5.93;1.73;;;10.80;99.90;;;;;;4906222;29;20032;-81
2022/12/23 15:06:13;;;;;;;3.97;1.25;;;10.70;99.90;;;;;;4905786;29;20068;-79
2022/12/23 15:08:41;;;;;;;2.60;2.10;;;10.50;99.90;;;;;;4905528;29;20032;-80
2022/12/23 15:11:16;;;;;;;2.77;1.43;;;10.50;99.90;;;;;;4923730;29;20416;-79
2022/12/23 15:13:42;;;;;;;2.17;1.38;;;10.40;99.90;;;;;;4912076;29;20052;-82
2022/12/23 15:16:16;;;;;;;3.20;1.33;;;10.30;99.90;;;;;;4926870;29;20076;-82
2022/12/23 15:18:53;;;;;;;1.98;1.58;;;10.30;99.90;;;;;;4912315;29;20032;-81
2022/12/23 15:21:18;;;;;;;2.63;2.15;;;10.20;99.90;;;;;;4923392;29;20052;-82
2022/12/23 15:23:49;;;;;;;6.20;3.33;;;10.10;99.90;;;;;;4922726;29;20056;-83
2022/12/23 15:26:15;;;;;;;5.15;3.50;;;10.10;99.90;;;;;;4924197;29;20035;-84
2022/12/23 15:28:41;;;;;;;15.52;9.05;;;10.10;99.90;;;;;;4914081;29;20024;-82
2022/12/23 15:31:30;;;;;;;18.45;11.75;;;10.00;99.90;;;;;;4923237;29;20392;-82
2022/12/23 15:33:58;;;;;;;19.45;12.55;;;9.90;99.90;;;;;;4925683;29;20028;-81
2022/12/23 15:36:34;;;;;;;23.20;12.50;;;9.70;99.90;;;;;;5035300;23;20069;-78
2022/12/23 15:39:00;;;;;;;21.85;12.85;;;9.60;99.90;;;;;;4904828;29;20679;-80
2022/12/23 15:41:27;;;;;;;23.02;13.65;;;9.50;99.90;;;;;;4902048;29;20496;-78
2022/12/23 15:43:56;;;;;;;23.75;13.48;;;9.50;99.90;;;;;;4900080;29;20112;-78
2022/12/23 15:46:41;;;;;;;23.65;13.68;;;9.40;99.90;;;;;;4902035;29;20029;-79
2022/12/23 15:49:09;;;;;;;29.67;16.75;;;9.30;99.90;;;;;;4900130;29;20032;-78
2022/12/23 15:51:38;;;;;;;28.45;16.35;;;9.30;99.90;;;;;;4900186;29;20465;-78
2022/12/23 15:54:06;;;;;;;;;;;9.30;99.90;;;;;;4900518;29;20465;-78
2022/12/23 15:56:35;;;;;;;32.92;16.80;;;9.20;99.90;;;;;;4901236;29;19995;-78
2022/12/23 15:59:02;;;;;;;37.75;18.08;;;9.20;99.90;;;;;;4900198;29;20060;-78
2022/12/23 16:01:38;;;;;;;35.92;19.55;;;9.20;99.90;;;;;;4901336;29;20095;-78
2022/12/23 16:04:05;;;;;;;32.90;17.33;;;9.20;99.90;;;;;;4899544;29;20040;-78
2022/12/23 16:06:34;;;;;;;27.95;16.27;;;9.10;99.90;;;;;;4899850;29;20469;-77
2022/12/23 16:09:02;;;;;;;29.00;15.32;;;9.10;99.90;;;;;;4899634;29;20458;-77
2022/12/23 16:11:46;;;;;;;27.27;15.32;;;9.10;99.90;;;;;;4900939;29;20036;-78
2022/12/23 16:14:33;;;;;;;30.60;15.68;;;9.10;99.90;;;;;;4901093;29;20028;-78
2022/12/23 16:17:08;;;;;;;29.15;16.48;;;9.00;99.90;;;;;;4900626;29;20021;-78
2022/12/23 16:19:46;;;;;;;27.50;16.15;;;9.00;99.90;;;;;;4899884;29;20066;-77
2022/12/23 16:22:28;;;;;;;28.52;16.10;;;8.90;99.90;;;;;;4899729;29;20116;-77
2022/12/23 16:24:56;;;;;;;24.92;15.15;;;8.90;99.90;;;;;;4900231;29;20032;-77
2022/12/23 16:27:43;;;;;;;28.45;16.58;;;8.90;99.90;;;;;;4901227;29;20088;-77
2022/12/23 16:30:28;;;;;;;25.05;15.50;;;8.80;99.90;;;;;;4901273;29;20120;-77
2022/12/23 16:33:01;;;;;;;32.55;16.30;;;8.80;99.90;;;;;;4903662;29;20032;-77
2022/12/23 16:35:35;;;;;;;26.65;15.95;;;8.80;99.90;;;;;;4903420;29;20108;-77
2022/12/23 16:38:12;;;;;;;27.27;15.73;;;8.80;99.90;;;;;;4904130;29;20087;-77
2022/12/23 16:40:38;;;;;;;25.63;16.25;;;8.80;99.90;;;;;;4900530;29;20040;-77
2022/12/23 16:43:04;;;;;;;20.88;12.73;;;8.70;99.90;;;;;;4901050;29;20036;-77
2022/12/23 16:45:31;;;;;;;20.80;12.45;;;8.70;99.90;;;;;;4900146;29;20032;-77
2022/12/23 16:47:58;;;;;;;20.95;12.63;;;8.70;99.90;;;;;;4901249;29;20491;-77
2022/12/23 16:50:24;;;;;;;20.70;13.07;;;8.70;99.90;;;;;;4902322;29;20073;-77
2022/12/23 16:52:50;;;;;;;25.05;14.82;;;8.70;99.90;;;;;;4901762;29;20035;-77
2022/12/23 16:55:17;;;;;;;23.30;14.88;;;8.70;99.90;;;;;;4901789;29;20033;-77
2022/12/23 16:57:43;;;;;;;22.73;14.35;;;8.70;99.90;;;;;;4900641;29;20373;-77
2022/12/23 17:00:14;;;;;;;26.63;15.82;;;8.70;99.90;;;;;;4900205;29;20028;-77
2022/12/23 17:02:45;;;;;;;19.55;12.70;;;8.60;99.90;;;;;;4900309;29;20039;-77
2022/12/23 17:05:15;;;;;;;22.40;13.32;;;8.60;99.90;;;;;;4898899;29;20362;-75
2022/12/23 17:07:41;;;;;;;23.83;14.23;;;8.60;99.90;;;;;;4899166;29;20033;-76
2022/12/23 17:10:07;;;;;;;25.58;15.35;;;8.60;99.90;;;;;;4898890;29;20096;-76
2022/12/23 17:12:33;;;;;;;24.63;15.02;;;8.60;99.90;;;;;;4899075;29;20385;-76
2022/12/23 17:14:59;;;;;;;25.20;15.38;;;8.60;99.90;;;;;;4899225;29;20029;-76
2022/12/23 17:17:24;;;;;;;28.25;14.85;;;8.60;99.90;;;;;;4900173;29;20397;-76
2022/12/23 17:19:51;;;;;;;21.30;12.50;;;8.60;99.90;;;;;;4898753;29;20037;-76
2022/12/23 17:22:16;;;;;;;32.20;18.40;;;8.50;99.90;;;;;;4898677;29;20036;-76
2022/12/23 17:24:42;;;;;;;29.75;17.52;;;8.50;99.90;;;;;;4898733;29;20441;-76
2022/12/23 17:27:12;;;;;;;36.85;17.13;;;8.50;99.90;;;;;;4899561;29;20025;-75